Time;durP1;ratioP1;P1;durP2;ratioP2;P2;SDS_P1;SDS_P2;PMS_P1;PMS_P2;Temp;Humidity;BMP_temperature;BMP_pressure;BME280_temperature;BME280_humidity;BME280_pressure;Samples;Min_cycle;Max_cycle;Signal;HPM_P1;HPM_P2
2023/09/26 00:00:15;;;;;;;7.78;2.47;;;;;;;;;;5059425;28;20056;-67
2023/09/26 00:02:43;;;;;;;6.55;2.67;;;;;;;;;;5064525;28;20044;-67
2023/09/26 00:05:10;;;;;;;6.88;2.90;;;;;;;;;;5081394;28;20067;-67
2023/09/26 00:07:38;;;;;;;6.93;2.63;;;;;;;;;;5055398;28;20068;-67
2023/09/26 00:10:05;;;;;;;6.70;3.10;;;;;;;;;;5062404;28;20060;-67
2023/09/26 00:12:32;;;;;;;5.47;2.40;;;;;;;;;;5049038;28;20297;-67
2023/09/26 00:15:00;;;;;;;8.32;2.70;;;;;;;;;;5066792;28;20036;-66
2023/09/26 00:17:27;;;;;;;6.07;2.55;;;;;;;;;;5050976;28;20110;-67
2023/09/26 00:19:55;;;;;;;6.00;2.80;;;;;;;;;;5036531;28;20250;-67
2023/09/26 00:22:22;;;;;;;7.47;2.92;;;;;;;;;;5044297;28;20052;-67
2023/09/26 00:24:48;;;;;;;10.13;2.92;;;;;;;;;;5063743;28;20144;-68
2023/09/26 00:27:15;;;;;;;6.63;2.35;;;;;;;;;;5042116;28;20056;-68
2023/09/26 00:29:42;;;;;;;4.88;2.47;;;;;;;;;;5053521;28;20048;-67
2023/09/26 00:32:09;;;;;;;7.03;3.00;;;;;;;;;;5083940;28;20088;-68
2023/09/26 00:34:35;;;;;;;8.35;2.33;;;;;;;;;;5081483;28;20071;-68
2023/09/26 00:37:03;;;;;;;5.75;2.63;;;;;;;;;;5065113;28;20107;-68
2023/09/26 00:39:31;;;;;;;8.10;2.45;;;;;;;;;;5056931;28;20060;-68
2023/09/26 00:41:57;;;;;;;7.40;2.67;;;;;;;;;;5041523;28;20044;-68
2023/09/26 00:44:24;;;;;;;5.90;2.50;;;;;;;;;;5045915;28;20106;-68
2023/09/26 00:46:51;;;;;;;7.68;2.83;;;;;;;;;;5043357;28;20056;-68
2023/09/26 00:49:18;;;;;;;8.18;2.88;;;;;;;;;;5061602;28;20076;-68
2023/09/26 00:51:44;;;;;;;7.57;2.80;;;;;;;;;;5048072;28;20075;-68
2023/09/26 00:54:12;;;;;;;6.88;2.88;;;;;;;;;;5064479;28;20074;-68
2023/09/26 00:56:41;;;;;;;7.35;2.08;;;;;;;;;;5062183;28;20048;-68
2023/09/26 00:59:08;;;;;;;;;;;;;;;;;;5059423;28;20074;-68
2023/09/26 01:01:36;;;;;;;9.48;2.38;;;;;;;;;;5060240;28;19934;-67
2023/09/26 01:04:04;;;;;;;6.25;2.42;;;;;;;;;;5058774;28;20180;-68
2023/09/26 01:06:31;;;;;;;6.88;2.40;;;;;;;;;;5046546;28;20146;-68
2023/09/26 01:08:58;;;;;;;6.82;2.35;;;;;;;;;;5076488;28;20209;-68
2023/09/26 01:11:27;;;;;;;7.88;2.30;;;;;;;;;;5080341;28;20071;-68
2023/09/26 01:13:54;;;;;;;9.23;2.45;;;;;;;;;;5062049;28;20059;-68
2023/09/26 01:16:21;;;;;;;7.25;2.58;;;;;;;;;;5066626;28;20051;-68
2023/09/26 01:18:48;;;;;;;6.00;2.30;;;;;;;;;;5058674;28;20187;-68
2023/09/26 01:21:15;;;;;;;8.02;3.00;;;;;;;;;;5062348;28;20080;-68
2023/09/26 01:23:42;;;;;;;6.38;2.47;;;;;;;;;;5056986;28;20080;-68
2023/09/26 01:26:10;;;;;;;5.63;2.25;;;;;;;;;;5085378;28;20102;-68
2023/09/26 01:28:37;;;;;;;6.13;2.63;;;;;;;;;;5052191;28;20118;-68
2023/09/26 01:31:04;;;;;;;4.97;2.17;;;;;;;;;;5042176;28;20064;-67
2023/09/26 01:33:31;;;;;;;11.15;2.40;;;;;;;;;;5040853;28;20140;-67
2023/09/26 01:35:57;;;;;;;6.18;2.50;;;;;;;;;;5057149;28;20063;-67
2023/09/26 01:38:24;;;;;;;6.00;2.45;;;;;;;;;;5039625;28;20122;-67
2023/09/26 01:40:50;;;;;;;5.85;2.45;;;;;;;;;;5042565;28;20155;-67
2023/09/26 01:43:19;;;;;;;7.10;2.63;;;;;;;;;;5039710;28;20044;-67
2023/09/26 01:45:45;;;;;;;5.53;2.28;;;;;;;;;;5053707;28;20056;-69
2023/09/26 01:48:12;;;;;;;6.47;2.75;;;;;;;;;;5056124;28;20060;-68
2023/09/26 01:50:40;;;;;;;4.68;2.22;;;;;;;;;;5058528;28;20056;-68
2023/09/26 01:53:08;;;;;;;5.72;2.47;;;;;;;;;;5046850;28;20056;-68
2023/09/26 01:55:39;;;;;;;5.07;2.15;;;;;;;;;;5057544;28;20165;-68
2023/09/26 01:58:06;;;;;;;10.32;2.55;;;;;;;;;;5012846;28;20063;-68
2023/09/26 02:00:34;;;;;;;5.15;2.42;;;;;;;;;;5042374;28;20052;-68
2023/09/26 02:03:01;;;;;;;5.40;2.33;;;;;;;;;;5062238;28;20075;-68
2023/09/26 02:05:27;;;;;;;5.28;2.20;;;;;;;;;;5041829;28;20131;-68
2023/09/26 02:07:54;;;;;;;6.55;2.47;;;;;;;;;;5042122;28;20208;-68
2023/09/26 02:10:21;;;;;;;7.18;2.50;;;;;;;;;;5036179;28;20066;-68
2023/09/26 02:12:48;;;;;;;8.98;2.45;;;;;;;;;;5046246;28;20117;-68
2023/09/26 02:15:15;;;;;;;7.97;2.67;;;;;;;;;;5036142;28;20056;-68
2023/09/26 02:17:44;;;;;;;7.50;3.33;;;;;;;;;;5060842;28;20326;-68
2023/09/26 02:20:14;;;;;;;6.22;2.58;;;;;;;;;;5054577;28;20048;-68
2023/09/26 02:22:41;;;;;;;7.63;2.63;;;;;;;;;;5035958;28;20076;-68
2023/09/26 02:25:09;;;;;;;5.38;2.60;;;;;;;;;;5042011;28;20052;-68
2023/09/26 02:27:35;;;;;;;6.35;2.50;;;;;;;;;;5057679;28;20151;-68
2023/09/26 02:30:04;;;;;;;5.70;2.28;;;;;;;;;;5064829;28;20059;-68
2023/09/26 02:32:31;;;;;;;7.47;2.42;;;;;;;;;;5035006;28;20110;-68
2023/09/26 02:34:59;;;;;;;9.43;2.70;;;;;;;;;;5053743;28;20066;-68
2023/09/26 02:37:25;;;;;;;6.15;2.58;;;;;;;;;;5058237;28;20052;-68
2023/09/26 02:39:52;;;;;;;7.13;2.40;;;;;;;;;;5057358;28;20087;-68
2023/09/26 02:42:18;;;;;;;6.38;2.33;;;;;;;;;;5038834;28;20159;-66
2023/09/26 02:44:45;;;;;;;6.72;2.47;;;;;;;;;;5039284;28;20240;-67
2023/09/26 02:47:12;;;;;;;5.50;2.47;;;;;;;;;;5061611;28;20064;-67
2023/09/26 02:49:38;;;;;;;6.97;2.75;;;;;;;;;;5059581;28;20084;-67
2023/09/26 02:52:08;;;;;;;5.97;2.58;;;;;;;;;;5059928;28;20151;-67
2023/09/26 02:54:34;;;;;;;6.82;2.78;;;;;;;;;;5021152;28;20060;-67
2023/09/26 02:57:01;;;;;;;7.18;2.75;;;;;;;;;;5057925;28;20115;-67
2023/09/26 02:59:29;;;;;;;6.63;3.38;;;;;;;;;;5057565;28;20086;-67
2023/09/26 03:01:56;;;;;;;6.32;2.70;;;;;;;;;;5059046;28;20083;-67
2023/09/26 03:04:23;;;;;;;10.57;2.92;;;;;;;;;;5031234;28;20052;-67
2023/09/26 03:06:49;;;;;;;9.15;2.58;;;;;;;;;;5048503;28;20041;-67
2023/09/26 03:09:17;;;;;;;7.03;3.10;;;;;;;;;;5065823;28;20048;-67
2023/09/26 03:11:44;;;;;;;7.80;2.70;;;;;;;;;;5044717;28;20071;-67
2023/09/26 03:14:11;;;;;;;5.57;2.45;;;;;;;;;;5052919;28;20048;-66
2023/09/26 03:16:38;;;;;;;9.27;2.72;;;;;;;;;;5056535;28;20148;-67
2023/09/26 03:19:05;;;;;;;7.25;2.83;;;;;;;;;;5044232;28;20071;-66
2023/09/26 03:21:32;;;;;;;7.53;3.03;;;;;;;;;;5058900;28;20064;-67
2023/09/26 03:23:59;;;;;;;7.93;2.63;;;;;;;;;;5054638;28;20110;-67
2023/09/26 03:26:27;;;;;;;7.93;2.90;;;;;;;;;;5049405;28;20056;-67
2023/09/26 03:28:54;;;;;;;8.65;2.65;;;;;;;;;;5040175;28;20070;-67
2023/09/26 03:31:20;;;;;;;6.03;2.70;;;;;;;;;;5042115;28;20072;-67
2023/09/26 03:33:49;;;;;;;5.80;2.80;;;;;;;;;;5038717;28;20052;-67
2023/09/26 03:36:15;;;;;;;7.80;2.72;;;;;;;;;;5057400;28;20068;-67
2023/09/26 03:38:42;;;;;;;4.85;2.25;;;;;;;;;;5056334;28;20137;-67
2023/09/26 03:41:08;;;;;;;10.65;3.10;;;;;;;;;;5027022;28;20088;-67
2023/09/26 03:43:36;;;;;;;10.30;2.97;;;;;;;;;;5045896;28;20106;-67
2023/09/26 03:46:05;;;;;;;6.50;2.63;;;;;;;;;;5042210;28;20080;-67
2023/09/26 03:48:32;;;;;;;7.63;3.38;;;;;;;;;;5040261;28;20052;-67
2023/09/26 03:51:07;;;;;;;7.00;3.33;;;;;;;;;;5044177;28;20064;-67
2023/09/26 03:53:34;;;;;;;7.80;3.38;;;;;;;;;;5058782;28;20299;-67
2023/09/26 03:56:01;;;;;;;9.40;3.30;;;;;;;;;;5041738;28;20055;-67
2023/09/26 03:58:27;;;;;;;7.55;3.15;;;;;;;;;;5050441;28;20133;-68
2023/09/26 04:00:55;;;;;;;8.00;2.83;;;;;;;;;;5044725;28;20057;-68
2023/09/26 04:03:23;;;;;;;8.90;2.70;;;;;;;;;;5043687;28;20044;-67
2023/09/26 04:05:56;;;;;;;8.88;3.28;;;;;;;;;;5076969;28;20097;-67
2023/09/26 04:08:23;;;;;;;6.05;2.88;;;;;;;;;;5052942;28;20299;-68
2023/09/26 04:10:50;;;;;;;7.03;3.10;;;;;;;;;;5044468;28;20052;-67
2023/09/26 04:13:16;;;;;;;7.78;3.30;;;;;;;;;;5044869;28;20083;-67
2023/09/26 04:15:44;;;;;;;9.20;4.10;;;;;;;;;;5056080;28;20151;-69
2023/09/26 04:18:12;;;;;;;20.98;10.02;;;;;;;;;;5065706;28;20078;-67
2023/09/26 04:20:39;;;;;;;22.08;11.85;;;;;;;;;;5045593;28;20080;-67
2023/09/26 04:23:06;;;;;;;21.35;11.60;;;;;;;;;;5047223;28;20060;-67
2023/09/26 04:25:35;;;;;;;14.40;6.78;;;;;;;;;;5038213;28;20131;-67
2023/09/26 04:28:03;;;;;;;10.48;4.20;;;;;;;;;;5061928;28;20056;-67
2023/09/26 04:30:30;;;;;;;7.93;3.53;;;;;;;;;;5060903;28;20055;-67
2023/09/26 04:32:57;;;;;;;16.35;8.57;;;;;;;;;;5051630;28;20096;-67
2023/09/26 04:35:25;;;;;;;24.25;12.25;;;;;;;;;;5036700;28;20142;-67
2023/09/26 04:37:52;;;;;;;17.23;9.00;;;;;;;;;;5033242;28;20102;-67
2023/09/26 04:40:19;;;;;;;12.68;6.18;;;;;;;;;;5020023;28;20053;-67
2023/09/26 04:42:48;;;;;;;16.15;7.90;;;;;;;;;;5043030;28;20072;-67
2023/09/26 04:45:15;;;;;;;15.38;6.82;;;;;;;;;;5020283;28;20155;-67
2023/09/26 04:47:42;;;;;;;10.07;4.70;;;;;;;;;;5039818;28;20128;-66
2023/09/26 04:50:11;;;;;;;11.70;4.25;;;;;;;;;;5033920;28;20156;-67
2023/09/26 04:52:39;;;;;;;9.55;3.95;;;;;;;;;;5024122;28;20064;-67
2023/09/26 04:55:09;;;;;;;10.45;4.07;;;;;;;;;;5041583;28;20130;-68
2023/09/26 04:57:35;;;;;;;14.65;3.78;;;;;;;;;;5045234;28;20198;-67
2023/09/26 05:00:05;;;;;;;9.82;4.13;;;;;;;;;;5030344;28;20048;-68
2023/09/26 05:02:32;;;;;;;11.10;4.18;;;;;;;;;;5025018;28;20057;-67
2023/09/26 05:04:58;;;;;;;8.82;3.80;;;;;;;;;;5021950;28;20079;-67
2023/09/26 05:07:25;;;;;;;15.02;4.38;;;;;;;;;;5040618;28;20057;-68
2023/09/26 05:09:53;;;;;;;11.40;3.97;;;;;;;;;;5042425;28;20098;-67
2023/09/26 05:12:19;;;;;;;7.72;3.97;;;;;;;;;;5022738;28;20077;-68
2023/09/26 05:14:46;;;;;;;8.15;3.63;;;;;;;;;;5021149;28;20161;-68
2023/09/26 05:17:13;;;;;;;10.05;4.28;;;;;;;;;;5020208;28;20121;-67
2023/09/26 05:19:39;;;;;;;12.38;5.20;;;;;;;;;;5029719;28;20044;-68
2023/09/26 05:22:06;;;;;;;29.00;13.52;;;;;;;;;;5042494;28;20071;-70
2023/09/26 05:24:33;;;;;;;34.20;15.88;;;;;;;;;;5030466;28;20087;-68
2023/09/26 05:27:03;;;;;;;47.72;22.95;;;;;;;;;;5045566;28;20106;-68
2023/09/26 05:29:33;;;;;;;35.35;16.90;;;;;;;;;;5063058;28;20061;-68
2023/09/26 05:31:59;;;;;;;16.65;8.48;;;;;;;;;;4990290;28;20071;-68
2023/09/26 05:34:26;;;;;;;11.65;6.20;;;;;;;;;;5042158;28;20044;-68
2023/09/26 05:36:53;;;;;;;10.68;4.97;;;;;;;;;;5063927;28;20117;-68
2023/09/26 05:39:20;;;;;;;12.70;5.35;;;;;;;;;;5082291;28;20148;-69
2023/09/26 05:41:46;;;;;;;11.02;4.72;;;;;;;;;;5064931;28;20062;-69
2023/09/26 05:44:17;;;;;;;10.30;4.43;;;;;;;;;;5049218;28;20140;-68
2023/09/26 05:46:44;;;;;;;10.60;4.47;;;;;;;;;;5036329;28;20140;-67
2023/09/26 05:49:11;;;;;;;14.02;4.60;;;;;;;;;;5036823;28;20246;-68
2023/09/26 05:51:37;;;;;;;13.85;4.50;;;;;;;;;;5057549;28;20056;-68
2023/09/26 05:54:04;;;;;;;8.82;4.45;;;;;;;;;;5058416;28;20049;-68
2023/09/26 05:56:32;;;;;;;10.60;4.50;;;;;;;;;;5058654;28;20151;-69
2023/09/26 05:58:58;;;;;;;9.15;4.57;;;;;;;;;;5062443;28;20440;-67
2023/09/26 06:01:30;;;;;;;9.25;4.57;;;;;;;;;;5062037;28;20113;-68
2023/09/26 06:03:57;;;;;;;8.77;4.13;;;;;;;;;;5049476;28;20059;-68
2023/09/26 06:06:23;;;;;;;10.57;4.68;;;;;;;;;;5045247;28;20227;-69
2023/09/26 06:08:50;;;;;;;10.73;4.53;;;;;;;;;;5056041;28;20059;-68
2023/09/26 06:11:17;;;;;;;9.77;4.57;;;;;;;;;;5042535;28;20057;-67
2023/09/26 06:13:44;;;;;;;8.95;4.50;;;;;;;;;;5021778;28;20097;-68
2023/09/26 06:16:14;;;;;;;12.65;5.00;;;;;;;;;;5044330;28;20075;-69
2023/09/26 06:18:42;;;;;;;9.30;4.65;;;;;;;;;;5045595;28;20103;-68
2023/09/26 06:21:08;;;;;;;10.25;4.97;;;;;;;;;;5046541;28;20052;-68
2023/09/26 06:23:36;;;;;;;10.75;4.45;;;;;;;;;;5043797;28;20143;-67
2023/09/26 06:26:04;;;;;;;9.53;4.73;;;;;;;;;;5053847;28;20045;-67
2023/09/26 06:28:31;;;;;;;9.80;5.47;;;;;;;;;;5061414;28;20133;-68
2023/09/26 06:31:04;;;;;;;13.82;5.22;;;;;;;;;;5046990;28;20056;-68
2023/09/26 06:33:31;;;;;;;10.85;5.10;;;;;;;;;;5048651;28;20150;-68
2023/09/26 06:35:59;;;;;;;15.07;5.65;;;;;;;;;;5032687;28;20118;-68
2023/09/26 06:38:26;;;;;;;10.82;5.38;;;;;;;;;;5037309;28;20064;-68
2023/09/26 06:41:01;;;;;;;17.50;5.95;;;;;;;;;;5062875;28;20130;-68
2023/09/26 06:43:27;;;;;;;16.70;5.72;;;;;;;;;;5046125;28;20067;-68
2023/09/26 06:45:54;;;;;;;15.15;5.53;;;;;;;;;;5041209;28;20142;-68
2023/09/26 06:48:20;;;;;;;10.55;5.40;;;;;;;;;;5061230;28;20048;-68
2023/09/26 06:50:47;;;;;;;12.93;5.53;;;;;;;;;;5033016;28;20073;-68
2023/09/26 06:53:15;;;;;;;12.90;5.68;;;;;;;;;;5024894;28;20053;-68
2023/09/26 06:55:42;;;;;;;13.55;5.40;;;;;;;;;;5008395;28;20159;-68
2023/09/26 06:58:09;;;;;;;11.73;5.57;;;;;;;;;;5041187;28;20056;-68
2023/09/26 07:00:37;;;;;;;20.63;5.80;;;;;;;;;;5033066;28;20081;-68
2023/09/26 07:03:06;;;;;;;9.20;5.28;;;;;;;;;;5049773;28;20048;-69
2023/09/26 07:05:33;;;;;;;13.27;5.20;;;;;;;;;;5072967;28;20052;-69
2023/09/26 07:07:59;;;;;;;15.68;5.88;;;;;;;;;;5083442;28;20059;-68
2023/09/26 07:10:28;;;;;;;14.38;6.15;;;;;;;;;;5054954;28;20059;-69
2023/09/26 07:12:55;;;;;;;11.23;5.57;;;;;;;;;;5070138;28;20078;-68
2023/09/26 07:15:22;;;;;;;17.88;5.97;;;;;;;;;;5035932;28;20141;-68
2023/09/26 07:17:49;;;;;;;11.48;5.43;;;;;;;;;;5060667;28;20072;-68
2023/09/26 07:20:16;;;;;;;10.98;5.65;;;;;;;;;;5054456;28;20092;-67
2023/09/26 07:22:43;;;;;;;12.38;5.43;;;;;;;;;;5061416;28;20068;-68
2023/09/26 07:25:10;;;;;;;12.35;5.05;;;;;;;;;;5006309;28;20049;-68
2023/09/26 07:27:38;;;;;;;13.68;6.10;;;;;;;;;;5043369;28;20052;-69
2023/09/26 07:30:09;;;;;;;12.80;6.13;;;;;;;;;;5071084;28;20071;-68
2023/09/26 07:32:39;;;;;;;17.10;5.75;;;;;;;;;;5061754;28;20131;-69
2023/09/26 07:35:06;;;;;;;13.27;5.22;;;;;;;;;;5058118;28;20153;-68
2023/09/26 07:37:35;;;;;;;14.15;5.45;;;;;;;;;;5062011;28;20108;-68
2023/09/26 07:40:05;;;;;;;12.68;5.38;;;;;;;;;;5048347;28;20195;-68
2023/09/26 07:42:32;;;;;;;12.10;5.43;;;;;;;;;;5036751;28;21537;-68
2023/09/26 07:45:00;;;;;;;11.00;5.80;;;;;;;;;;5039304;28;20044;-69
2023/09/26 07:47:27;;;;;;;16.85;5.55;;;;;;;;;;5043955;28;20060;-67
2023/09/26 07:49:54;;;;;;;13.43;5.72;;;;;;;;;;5061782;28;20110;-68
2023/09/26 07:52:25;;;;;;;10.15;5.70;;;;;;;;;;5042126;28;20140;-67
2023/09/26 07:54:52;;;;;;;13.18;5.72;;;;;;;;;;5053688;28;20059;-68
2023/09/26 07:57:20;;;;;;;12.05;5.72;;;;;;;;;;5061777;28;20132;-68
2023/09/26 07:59:47;;;;;;;13.13;5.22;;;;;;;;;;5043441;28;20063;-68
2023/09/26 08:02:17;;;;;;;13.88;5.97;;;;;;;;;;5039808;28;20086;-68
2023/09/26 08:04:44;;;;;;;8.52;5.28;;;;;;;;;;5034752;28;20064;-68
2023/09/26 08:07:12;;;;;;;16.88;6.20;;;;;;;;;;5043248;28;20199;-68
2023/09/26 08:09:38;;;;;;;23.83;6.57;;;;;;;;;;5047975;28;20144;-68
2023/09/26 08:12:06;;;;;;;13.43;6.03;;;;;;;;;;5047364;28;20052;-68
2023/09/26 08:14:35;;;;;;;13.07;5.72;;;;;;;;;;5020630;28;20057;-68
2023/09/26 08:17:01;;;;;;;12.25;6.05;;;;;;;;;;5058809;28;20052;-68
2023/09/26 08:19:29;;;;;;;11.10;5.60;;;;;;;;;;5060710;28;20052;-69
2023/09/26 08:21:56;;;;;;;10.30;5.97;;;;;;;;;;5058972;28;20088;-68
2023/09/26 08:24:23;;;;;;;16.98;5.85;;;;;;;;;;5023620;28;20057;-68
2023/09/26 08:26:48;;;;;;;11.77;5.70;;;;;;;;;;5032186;28;20060;-68
2023/09/26 08:29:15;;;;;;;19.48;6.38;;;;;;;;;;5069600;28;20098;-68
2023/09/26 08:31:42;;;;;;;13.85;6.32;;;;;;;;;;5044107;28;20055;-68
2023/09/26 08:34:09;;;;;;;11.27;5.55;;;;;;;;;;5033600;28;20148;-68
2023/09/26 08:36:37;;;;;;;12.10;6.28;;;;;;;;;;5024069;28;20134;-68
2023/09/26 08:39:04;;;;;;;9.85;5.38;;;;;;;;;;5049535;28;20071;-68
2023/09/26 08:41:33;;;;;;;13.20;6.15;;;;;;;;;;5043818;28;20057;-68
2023/09/26 08:44:00;;;;;;;14.85;5.43;;;;;;;;;;5022610;28;20163;-71
2023/09/26 08:46:27;;;;;;;13.07;6.63;;;;;;;;;;5019634;28;20057;-67
2023/09/26 08:48:56;;;;;;;14.02;5.50;;;;;;;;;;5044370;28;20057;-68
2023/09/26 08:51:23;;;;;;;14.02;5.97;;;;;;;;;;5044161;28;20053;-69
2023/09/26 08:53:52;;;;;;;10.85;5.20;;;;;;;;;;5069247;28;20048;-68
2023/09/26 08:56:19;;;;;;;;;;;;;;;;;;4968954;28;20076;-68
2023/09/26 08:58:47;;;;;;;14.20;5.70;;;;;;;;;;5047740;28;19971;-68
2023/09/26 09:01:14;;;;;;;19.08;6.38;;;;;;;;;;5045609;28;20132;-68
2023/09/26 09:03:41;;;;;;;10.45;5.72;;;;;;;;;;5042907;28;20106;-68
2023/09/26 09:06:08;;;;;;;11.60;5.55;;;;;;;;;;5010198;28;20112;-68
2023/09/26 09:08:35;;;;;;;14.18;6.45;;;;;;;;;;5044107;28;20063;-68
2023/09/26 09:11:04;;;;;;;15.07;5.75;;;;;;;;;;5003821;28;20123;-68
2023/09/26 09:13:32;;;;;;;12.98;6.53;;;;;;;;;;5034010;28;20049;-67
2023/09/26 09:16:13;;;;;;;11.52;6.03;;;;;;;;;;5002837;28;20108;-67
2023/09/26 09:18:42;;;;;;;14.63;5.68;;;;;;;;;;5023976;28;20092;-68
2023/09/26 09:21:24;;;;;;;14.00;6.30;;;;;;;;;;5026560;28;20144;-67
2023/09/26 09:23:55;;;;;;;13.02;6.07;;;;;;;;;;5047252;28;20120;-67
2023/09/26 09:26:24;;;;;;;11.48;5.80;;;;;;;;;;5021563;28;20118;-67
2023/09/26 09:28:52;;;;;;;15.70;5.95;;;;;;;;;;5026583;28;20060;-68
2023/09/26 09:31:19;;;;;;;14.02;6.13;;;;;;;;;;5053532;28;20068;-68
2023/09/26 09:33:47;;;;;;;13.60;5.72;;;;;;;;;;5062094;28;20052;-66
2023/09/26 09:36:15;;;;;;;11.87;5.73;;;;;;;;;;5021589;28;20044;-67
2023/09/26 09:38:41;;;;;;;11.97;6.13;;;;;;;;;;5064364;28;20056;-67
2023/09/26 09:41:08;;;;;;;11.23;5.22;;;;;;;;;;5064818;28;20365;-68
2023/09/26 09:43:37;;;;;;;17.15;6.00;;;;;;;;;;5063860;28;20062;-68
2023/09/26 09:46:08;;;;;;;12.00;6.32;;;;;;;;;;5070603;28;20056;-68
2023/09/26 09:48:42;;;;;;;10.85;5.68;;;;;;;;;;4977223;28;20872;-68
2023/09/26 09:51:13;;;;;;;15.23;5.50;;;;;;;;;;5054918;28;20140;-69
2023/09/26 09:53:45;;;;;;;11.35;5.22;;;;;;;;;;4994870;28;20059;-68
2023/09/26 09:56:18;;;;;;;11.13;5.30;;;;;;;;;;5005537;28;20066;-68
2023/09/26 09:58:50;;;;;;;13.68;5.57;;;;;;;;;;5043879;28;20052;-68
2023/09/26 10:01:19;;;;;;;13.50;4.90;;;;;;;;;;5056232;28;20056;-69
2023/09/26 10:03:51;;;;;;;11.93;5.53;;;;;;;;;;5020455;28;20048;-68
2023/09/26 10:06:19;;;;;;;11.55;5.15;;;;;;;;;;5045355;28;20052;-69
2023/09/26 10:08:49;;;;;;;19.13;5.85;;;;;;;;;;5043951;28;20060;-69
2023/09/26 10:11:16;;;;;;;15.88;5.03;;;;;;;;;;5045724;28;20147;-70
2023/09/26 10:13:43;;;;;;;9.68;5.20;;;;;;;;;;5028478;28;20141;-68
2023/09/26 10:16:16;;;;;;;10.35;5.50;;;;;;;;;;5056739;28;20968;-68
2023/09/26 10:18:44;;;;;;;13.52;5.43;;;;;;;;;;5049286;28;20051;-67
2023/09/26 10:21:20;;;;;;;8.93;4.72;;;;;;;;;;5060187;28;20170;-68
2023/09/26 10:24:21;;;;;;;12.02;5.13;;;;;;;;;;5046959;28;20136;-69
2023/09/26 10:26:49;;;;;;;9.88;4.63;;;;;;;;;;5043350;28;20060;-69
2023/09/26 10:29:22;;;;;;;10.83;4.90;;;;;;;;;;5060897;28;20123;-69
2023/09/26 10:31:53;;;;;;;10.32;4.47;;;;;;;;;;5009987;28;20134;-69
2023/09/26 10:34:24;;;;;;;8.60;4.20;;;;;;;;;;5026186;28;20056;-69
2023/09/26 10:36:50;;;;;;;10.98;4.55;;;;;;;;;;5068632;28;20055;-69
2023/09/26 10:39:18;;;;;;;10.88;4.78;;;;;;;;;;5068564;28;20075;-68
2023/09/26 10:41:45;;;;;;;8.73;4.50;;;;;;;;;;5080184;28;20067;-70
2023/09/26 10:44:14;;;;;;;9.77;4.40;;;;;;;;;;5033942;28;20052;-70
2023/09/26 10:46:41;;;;;;;13.18;4.75;;;;;;;;;;5085497;28;20128;-69
2023/09/26 10:49:10;;;;;;;10.93;4.32;;;;;;;;;;5061945;28;20060;-69
2023/09/26 10:51:37;;;;;;;9.80;4.10;;;;;;;;;;5044479;28;20058;-69
2023/09/26 10:54:04;;;;;;;14.52;4.20;;;;;;;;;;5015553;28;20056;-69
2023/09/26 10:56:31;;;;;;;8.13;3.93;;;;;;;;;;5042202;28;20140;-68
2023/09/26 10:58:58;;;;;;;11.88;4.68;;;;;;;;;;5061210;28;20060;-69
2023/09/26 11:01:37;;;;;;;18.10;5.57;;;;;;;;;;5042622;28;20122;-70
2023/09/26 11:04:06;;;;;;;15.05;5.55;;;;;;;;;;5046089;28;20055;-69
2023/09/26 11:06:34;;;;;;;12.95;6.35;;;;;;;;;;5014539;28;20093;-69
2023/09/26 11:09:04;;;;;;;9.80;4.53;;;;;;;;;;5060991;28;20056;-69
2023/09/26 11:11:30;;;;;;;9.93;4.30;;;;;;;;;;5056745;28;20056;-69
2023/09/26 11:13:57;;;;;;;9.85;3.95;;;;;;;;;;5048873;28;20537;-69
2023/09/26 11:16:24;;;;;;;10.55;5.00;;;;;;;;;;5042246;28;20074;-69
2023/09/26 11:18:54;;;;;;;12.20;4.53;;;;;;;;;;5060852;28;20081;-69
2023/09/26 11:21:21;;;;;;;11.02;4.70;;;;;;;;;;5069299;28;20091;-68
2023/09/26 11:23:49;;;;;;;8.00;4.03;;;;;;;;;;5015027;28;20070;-69
2023/09/26 11:26:16;;;;;;;12.10;5.53;;;;;;;;;;5060692;28;20052;-69
2023/09/26 11:28:43;;;;;;;10.57;5.70;;;;;;;;;;5042268;28;20070;-69
2023/09/26 11:31:10;;;;;;;9.65;4.53;;;;;;;;;;5062733;28;20051;-68
2023/09/26 11:33:38;;;;;;;11.43;4.55;;;;;;;;;;5048490;28;20091;-69
2023/09/26 11:36:05;;;;;;;10.13;4.70;;;;;;;;;;5059738;28;20105;-67
2023/09/26 11:38:32;;;;;;;11.68;4.43;;;;;;;;;;5080150;28;20064;-70
2023/09/26 11:41:00;;;;;;;9.43;4.50;;;;;;;;;;5062055;28;20084;-67
2023/09/26 11:43:27;;;;;;;11.45;4.88;;;;;;;;;;5074903;28;20056;-67
2023/09/26 11:46:02;;;;;;;11.40;5.28;;;;;;;;;;5070961;28;20083;-70
2023/09/26 11:48:29;;;;;;;11.32;4.88;;;;;;;;;;5062076;28;20067;-69
2023/09/26 11:50:56;;;;;;;16.08;4.90;;;;;;;;;;5047804;28;20080;-69
2023/09/26 11:53:25;;;;;;;13.85;5.55;;;;;;;;;;5035758;28;20097;-67
2023/09/26 11:55:53;;;;;;;8.93;4.85;;;;;;;;;;5039639;28;20108;-67
2023/09/26 11:58:21;;;;;;;21.13;5.65;;;;;;;;;;5070919;28;20071;-68
2023/09/26 12:00:47;;;;;;;12.48;5.60;;;;;;;;;;5061387;28;20065;-67
2023/09/26 12:03:14;;;;;;;13.90;5.88;;;;;;;;;;5052760;28;20056;-68
2023/09/26 12:05:41;;;;;;;11.93;5.00;;;;;;;;;;5043683;28;20048;-70
2023/09/26 12:08:08;;;;;;;12.25;5.75;;;;;;;;;;5060730;28;20251;-68
2023/09/26 12:10:35;;;;;;;10.35;5.43;;;;;;;;;;5089383;28;20135;-68
2023/09/26 12:13:02;;;;;;;13.00;5.88;;;;;;;;;;5025862;28;20061;-67
2023/09/26 12:15:30;;;;;;;12.07;5.50;;;;;;;;;;5044945;28;20052;-68
2023/09/26 12:18:00;;;;;;;12.05;5.90;;;;;;;;;;5036689;28;20110;-70
2023/09/26 12:20:28;;;;;;;11.60;5.65;;;;;;;;;;5045506;28;20053;-68
2023/09/26 12:22:55;;;;;;;;;;;;;;;;;;5062001;28;20156;-68
2023/09/26 12:25:24;;;;;;;11.27;5.05;;;;;;;;;;5040688;28;19928;-69
2023/09/26 12:27:54;;;;;;;12.82;5.50;;;;;;;;;;5054190;28;20072;-67
2023/09/26 12:30:21;;;;;;;11.65;5.63;;;;;;;;;;5050228;28;20135;-70
2023/09/26 12:32:50;;;;;;;12.98;5.85;;;;;;;;;;5041410;28;20174;-68
2023/09/26 12:35:19;;;;;;;13.82;5.35;;;;;;;;;;5069791;28;20052;-71
2023/09/26 12:37:46;;;;;;;13.73;5.55;;;;;;;;;;5062501;28;20076;-70
2023/09/26 12:40:13;;;;;;;10.45;5.07;;;;;;;;;;5071083;28;20097;-69
2023/09/26 12:42:41;;;;;;;12.32;5.57;;;;;;;;;;5064969;28;20081;-69
2023/09/26 12:45:13;;;;;;;15.57;4.85;;;;;;;;;;5043140;28;20059;-70
2023/09/26 12:47:40;;;;;;;11.35;5.45;;;;;;;;;;5065226;28;20051;-69
2023/09/26 12:50:09;;;;;;;13.80;5.43;;;;;;;;;;5051980;28;20056;-70
2023/09/26 12:52:36;;;;;;;17.45;5.28;;;;;;;;;;5045386;28;20164;-70
2023/09/26 12:55:07;;;;;;;11.27;5.25;;;;;;;;;;5022696;28;20052;-68
2023/09/26 12:57:38;;;;;;;11.48;4.55;;;;;;;;;;5063738;28;20144;-69
2023/09/26 13:00:09;;;;;;;9.40;4.72;;;;;;;;;;5037016;28;20060;-69
2023/09/26 13:02:36;;;;;;;11.25;4.80;;;;;;;;;;5062544;28;20113;-69
2023/09/26 13:05:03;;;;;;;10.27;5.00;;;;;;;;;;5058589;28;20064;-68
2023/09/26 13:07:31;;;;;;;11.43;4.82;;;;;;;;;;5051215;28;20156;-69
2023/09/26 13:09:58;;;;;;;9.40;4.55;;;;;;;;;;5039788;28;20060;-67
2023/09/26 13:12:25;;;;;;;8.60;4.65;;;;;;;;;;5067104;28;20056;-68
2023/09/26 13:14:51;;;;;;;7.72;4.30;;;;;;;;;;5055788;28;20056;-70
2023/09/26 13:17:19;;;;;;;9.38;3.95;;;;;;;;;;5043981;28;20053;-69
2023/09/26 13:19:46;;;;;;;8.38;3.83;;;;;;;;;;5043277;28;20102;-69
2023/09/26 13:22:14;;;;;;;11.35;3.67;;;;;;;;;;5059562;28;20106;-68
2023/09/26 13:24:43;;;;;;;13.27;4.38;;;;;;;;;;5056206;28;20055;-68
2023/09/26 13:27:09;;;;;;;9.95;4.10;;;;;;;;;;5044205;28;20066;-69
2023/09/26 13:29:36;;;;;;;10.98;4.25;;;;;;;;;;5062060;28;20122;-69
2023/09/26 13:32:04;;;;;;;9.55;4.10;;;;;;;;;;5056519;28;20109;-70
2023/09/26 13:34:30;;;;;;;9.67;4.30;;;;;;;;;;5056737;28;20127;-69
2023/09/26 13:36:58;;;;;;;11.32;4.00;;;;;;;;;;5070119;28;20294;-69
2023/09/26 13:39:24;;;;;;;6.63;3.47;;;;;;;;;;5070045;28;20044;-69
2023/09/26 13:41:53;;;;;;;12.40;4.20;;;;;;;;;;5023364;28;20056;-69
2023/09/26 13:44:19;;;;;;;;;;;;;;;;;;5056912;28;20048;-69
2023/09/26 13:46:46;;;;;;;9.65;3.92;;;;;;;;;;5044904;28;19985;-69
2023/09/26 13:49:13;;;;;;;7.38;4.05;;;;;;;;;;5044519;28;20060;-69
2023/09/26 13:51:41;;;;;;;12.32;4.03;;;;;;;;;;5062064;28;20052;-70
2023/09/26 13:54:09;;;;;;;8.50;4.05;;;;;;;;;;5023516;28;20064;-70
2023/09/26 13:56:35;;;;;;;11.68;4.28;;;;;;;;;;5045021;28;20059;-69
2023/09/26 13:59:03;;;;;;;13.95;4.25;;;;;;;;;;5059773;28;20049;-69
2023/09/26 14:01:30;;;;;;;11.60;4.38;;;;;;;;;;5062623;28;20057;-69
2023/09/26 14:03:57;;;;;;;10.85;4.47;;;;;;;;;;5038531;28;20082;-68
2023/09/26 14:06:24;;;;;;;9.30;4.10;;;;;;;;;;5062637;28;20139;-69
2023/09/26 14:08:57;;;;;;;13.07;4.95;;;;;;;;;;5043016;28;20041;-69
2023/09/26 14:11:24;;;;;;;10.52;4.68;;;;;;;;;;5062608;28;20051;-68
2023/09/26 14:13:51;;;;;;;13.32;4.60;;;;;;;;;;5027119;28;20074;-67
2023/09/26 14:16:19;;;;;;;10.40;4.43;;;;;;;;;;5044615;28;20084;-68
2023/09/26 14:18:46;;;;;;;7.78;3.63;;;;;;;;;;5043422;28;20048;-68
2023/09/26 14:21:14;;;;;;;7.65;3.38;;;;;;;;;;5062410;28;20067;-69
2023/09/26 14:23:42;;;;;;;7.72;3.72;;;;;;;;;;5056074;28;20052;-69
2023/09/26 14:26:09;;;;;;;11.02;3.92;;;;;;;;;;5038276;28;21063;-69
2023/09/26 14:28:39;;;;;;;11.60;3.83;;;;;;;;;;5060800;28;20110;-68
2023/09/26 14:31:08;;;;;;;10.82;3.40;;;;;;;;;;5044017;28;20060;-67
2023/09/26 14:33:36;;;;;;;9.65;3.72;;;;;;;;;;5060600;28;20044;-67
2023/09/26 14:36:03;;;;;;;;;;;;;;;;;;5056405;28;20124;-68
2023/09/26 14:38:30;;;;;;;10.35;3.42;;;;;;;;;;5046775;28;19921;-67